createdAt,value
2018-11-14T00:03:18.474Z,102.07
2018-11-14T00:09:13.454Z,43.07
2018-11-14T00:15:08.496Z,38.42
2018-11-14T00:21:03.442Z,38.28
2018-11-14T00:26:58.452Z,32.15
2018-11-14T00:32:53.441Z,30.79
2018-11-14T00:38:48.467Z,24.74
2018-11-14T00:44:43.487Z,27.65
2018-11-14T00:50:38.464Z,24.9
2018-11-14T00:56:33.486Z,22.2
2018-11-14T01:02:28.497Z,22.23
2018-11-14T01:08:23.465Z,20.87
2018-11-14T01:14:18.500Z,25.1
2018-11-14T01:20:13.500Z,30.06
2018-11-14T01:26:08.481Z,23.2
2018-11-14T01:32:03.507Z,19.43
2018-11-14T01:37:58.508Z,22.89
2018-11-14T01:43:53.482Z,17.65
2018-11-14T01:49:48.504Z,18.65
2018-11-14T01:55:43.577Z,17.6
2018-11-14T02:01:38.510Z,18.41
2018-11-14T02:07:33.510Z,13.23
2018-11-14T02:13:28.519Z,18.14
2018-11-14T02:19:23.500Z,30.22
2018-11-14T02:25:18.583Z,17.97
2018-11-14T02:31:13.542Z,18.11
2018-11-14T02:37:08.562Z,22.83
2018-11-14T02:43:03.542Z,29.08
2018-11-14T02:48:58.542Z,18.6
2018-11-14T02:54:53.530Z,19.04
2018-11-14T03:00:48.530Z,18.63
2018-11-14T03:06:43.549Z,19.1
2018-11-14T03:12:38.674Z,20.82
2018-11-14T03:18:33.546Z,20.94
2018-11-14T03:24:28.593Z,17.33
2018-11-14T03:30:23.563Z,28.43
2018-11-14T03:36:18.554Z,30.47
2018-11-14T03:42:13.574Z,36.8
2018-11-14T03:48:08.595Z,25.42
2018-11-14T03:54:03.588Z,16.97
2018-11-14T03:59:58.594Z,18.52
2018-11-14T04:05:53.572Z,20.87
2018-11-14T04:11:48.580Z,16.8
2018-11-14T04:17:43.580Z,22.08
2018-11-14T04:23:38.582Z,17.86
2018-11-14T04:29:33.599Z,16.95
2018-11-14T04:35:28.589Z,19.59
2018-11-14T04:41:23.590Z,16.85
2018-11-14T04:47:18.652Z,17.96
2018-11-14T04:53:13.598Z,18.47
2018-11-14T04:59:08.600Z,23.34
2018-11-14T05:05:03.604Z,21.73
2018-11-14T05:10:58.620Z,33.3
2018-11-14T05:16:53.605Z,35.61
2018-11-14T05:22:48.711Z,31.38
2018-11-14T05:28:43.634Z,23.45
2018-11-14T05:34:38.649Z,28.88
2018-11-14T05:40:33.634Z,20
2018-11-14T05:46:28.773Z,16.59
2018-11-14T05:52:23.627Z,19.18
2018-11-14T05:58:18.631Z,16.97
2018-11-14T06:04:13.644Z,20.4
2018-11-14T06:10:08.659Z,17.16
2018-11-14T06:16:03.652Z,18.09
2018-11-14T06:21:58.782Z,16.1
2018-11-14T06:27:53.685Z,16.81
2018-11-14T06:33:48.675Z,20.9
2018-11-14T06:39:43.666Z,28.33
2018-11-14T06:45:38.682Z,22.4
2018-11-14T06:51:33.690Z,19.66
2018-11-14T06:57:28.664Z,23.49
2018-11-14T07:03:23.727Z,21.8
2018-11-14T07:09:18.730Z,27.41
2018-11-14T07:15:13.677Z,21.05
2018-11-14T07:21:08.695Z,31.22
2018-11-14T07:27:03.696Z,30.83
2018-11-14T07:32:58.716Z,29.01
2018-11-14T07:38:53.699Z,23.77
2018-11-14T07:44:48.723Z,23.47
2018-11-14T07:50:43.699Z,23.41
2018-11-14T07:56:38.710Z,21.42
2018-11-14T08:02:33.719Z,21.22
2018-11-14T08:08:28.796Z,17.59
2018-11-14T08:14:23.722Z,19.4
2018-11-14T08:20:18.796Z,24.24
2018-11-14T08:26:13.716Z,17.22
2018-11-14T08:32:08.794Z,21.14
2018-11-14T08:38:03.746Z,22.93
2018-11-14T08:43:58.732Z,23.12
2018-11-14T08:49:53.734Z,23.64
2018-11-14T08:55:48.776Z,19.77
2018-11-14T09:01:43.741Z,26.05
2018-11-14T09:07:38.819Z,18.63
2018-11-14T09:13:33.777Z,19.11
2018-11-14T09:19:28.865Z,19.01
2018-11-14T09:25:23.758Z,21.75
2018-11-14T09:31:18.780Z,20.5
2018-11-14T09:37:13.773Z,24.48
2018-11-14T09:43:08.777Z,22.36
2018-11-14T09:49:03.793Z,23.05
2018-11-14T09:54:58.766Z,24.33
2018-11-14T10:00:53.833Z,17.9
2018-11-14T10:06:48.798Z,25.79
2018-11-14T10:12:43.784Z,17.49
2018-11-14T10:18:38.798Z,24.37
2018-11-14T10:24:33.857Z,20.63
2018-11-14T10:30:28.839Z,21.38
2018-11-14T10:36:23.806Z,18.64
2018-11-14T10:42:18.797Z,27.4
2018-11-14T10:48:13.815Z,23.3
2018-11-14T10:54:08.827Z,21.17
2018-11-14T11:00:03.818Z,19.4
2018-11-14T11:05:58.817Z,22.47
2018-11-14T11:11:53.898Z,21.88
2018-11-14T11:17:48.822Z,23.5
2018-11-14T11:23:43.892Z,23.82
2018-11-14T11:29:38.814Z,24.34
2018-11-14T11:35:33.870Z,26.59
2018-11-14T11:41:28.838Z,20.46
2018-11-14T11:47:23.838Z,23.91
2018-11-14T11:53:18.882Z,19.97
2018-11-14T11:59:13.862Z,24.26
2018-11-14T12:05:08.863Z,22.56
2018-11-14T12:11:03.868Z,19.76
2018-11-14T12:16:58.874Z,25.76
2018-11-14T12:22:53.888Z,23
2018-11-14T12:28:48.912Z,22.04
2018-11-14T12:34:43.987Z,17.61
2018-11-14T12:40:38.867Z,19.33
2018-11-14T12:46:33.898Z,20.78
2018-11-14T12:52:28.905Z,19.28
2018-11-14T12:58:23.912Z,21.36
2018-11-14T13:04:18.897Z,21.37
2018-11-14T13:10:13.915Z,20.02
2018-11-14T13:16:08.902Z,20.03
2018-11-14T13:22:03.890Z,19.02
2018-11-14T13:27:58.967Z,19.55
2018-11-14T13:33:53.927Z,20.27
2018-11-14T13:39:48.978Z,20.39
2018-11-14T13:45:43.920Z,20.99
2018-11-14T13:51:38.951Z,26.67
2018-11-14T13:57:33.932Z,22.9
2018-11-14T14:03:28.933Z,28.91
2018-11-14T14:09:23.989Z,22.15
2018-11-14T14:15:18.922Z,22.39
2018-11-14T14:21:13.936Z,20.56
2018-11-14T14:27:08.939Z,21.68
2018-11-14T14:33:03.982Z,22.7
2018-11-14T14:38:58.951Z,20.21
2018-11-14T14:44:53.955Z,21.97
2018-11-14T14:50:48.948Z,23.98
2018-11-14T14:56:43.962Z,21.36
2018-11-14T15:02:38.958Z,23.66
2018-11-14T15:08:33.967Z,31.55
2018-11-14T15:14:28.982Z,23.53
2018-11-14T15:20:23.972Z,23.15
2018-11-14T15:26:18.980Z,32.07
2018-11-14T15:32:14.040Z,25.08
2018-11-14T15:38:08.980Z,31.34
2018-11-14T15:44:03.980Z,24.38
2018-11-14T15:49:59.044Z,31.7
2018-11-14T15:55:53.981Z,36.43
2018-11-14T16:01:49.019Z,29.03
2018-11-14T16:07:44.060Z,32.76
2018-11-14T16:13:38.990Z,35.99
2018-11-14T16:19:34.045Z,34.33
2018-11-14T16:25:29.060Z,28.61
2018-11-14T16:31:24.062Z,27.62
2018-11-14T16:37:19.032Z,31.34
2018-11-14T16:43:14.043Z,34.34
2018-11-14T16:49:09.072Z,34.61
2018-11-14T16:55:04.093Z,37.5
2018-11-14T17:00:59.061Z,30.52
2018-11-14T17:06:54.082Z,29.39
2018-11-14T17:12:49.050Z,30.1
2018-11-14T17:18:44.076Z,30.06
2018-11-14T17:24:39.094Z,28.38
2018-11-14T17:30:34.060Z,37.76
2018-11-14T17:36:29.081Z,29.48
2018-11-14T17:42:24.209Z,26.17
2018-11-14T17:48:19.072Z,28.16
2018-11-14T17:54:14.089Z,29.4
2018-11-14T18:00:09.120Z,28.25
2018-11-14T18:06:04.079Z,21.99
2018-11-14T18:11:59.093Z,20.9
2018-11-14T18:17:54.082Z,22.53
2018-11-14T18:23:49.093Z,20.72
2018-11-14T18:29:44.100Z,25.66
2018-11-14T18:35:39.097Z,25.29
2018-11-14T18:41:34.205Z,31.4
2018-11-14T18:47:29.104Z,22.25
2018-11-14T18:53:24.115Z,25.46
2018-11-14T18:59:19.120Z,22.2
2018-11-14T19:05:14.162Z,24.99
2018-11-14T19:11:09.123Z,21.72
2018-11-14T19:17:04.183Z,22.34
2018-11-14T19:22:59.152Z,21.34
2018-11-14T19:28:54.176Z,30.9
2018-11-14T19:34:49.137Z,30.54
2018-11-14T19:40:44.176Z,25.19
2018-11-14T19:46:39.179Z,27.66
2018-11-14T19:52:34.184Z,26.53
2018-11-14T19:58:29.140Z,25.25
2018-11-14T20:04:24.184Z,24.3
2018-11-14T20:10:19.222Z,26.92
2018-11-14T20:16:14.148Z,31.2
2018-11-14T20:22:09.205Z,35.37
2018-11-14T20:28:04.185Z,32.3
2018-11-14T20:33:59.197Z,28.27
2018-11-14T20:39:54.184Z,36.03
2018-11-14T20:45:49.229Z,32.72
2018-11-14T20:51:44.168Z,31.03
2018-11-14T20:57:39.185Z,36.4
2018-11-14T21:03:34.186Z,36.61
2018-11-14T21:09:29.208Z,40.81
2018-11-14T21:15:24.244Z,41.32
2018-11-14T21:21:19.194Z,39.64
2018-11-14T21:27:14.207Z,41.96
2018-11-14T21:33:09.223Z,35.54
2018-11-14T21:39:04.223Z,38.37
2018-11-14T21:44:59.274Z,40.51
2018-11-14T21:50:54.218Z,27.11
2018-11-14T21:56:49.259Z,37.34
2018-11-14T22:02:44.214Z,39.67
2018-11-14T22:08:39.248Z,38.53
2018-11-14T22:14:34.283Z,31.51
2018-11-14T22:20:29.241Z,30.76
2018-11-14T22:26:24.231Z,33.84
2018-11-14T22:32:19.247Z,43
2018-11-14T22:38:14.230Z,44.35
2018-11-14T22:44:09.242Z,31.13
2018-11-14T22:50:04.263Z,30.95
2018-11-14T22:55:59.249Z,34.15
2018-11-14T23:01:54.311Z,39.2
2018-11-14T23:07:49.284Z,43.53
2018-11-14T23:13:44.286Z,31.46
2018-11-14T23:19:39.272Z,38.88
2018-11-14T23:25:34.273Z,36.1
2018-11-14T23:31:29.333Z,30.94
2018-11-14T23:37:24.291Z,34.91
2018-11-14T23:43:19.290Z,41.92
2018-11-14T23:49:14.325Z,41
2018-11-14T23:55:09.347Z,34.4
